Helmsdale, United Kingdom
Current Conditions -  °F | °C
As of 4:50 AM on Monday 20 Oct 2014 (Local Time) from EGQS Reporting Station
Clear Clear  
Wind Chill:   Ceiling: Unl
Heat Index:   Visibility: 6mi
Dew Point:   Wind: 13mph
Humidity: 76%   Direction: 250°WSW
Pressure: 29.59"   Gusts: NA
Location:  58.12°N, 3.66°W
Report Text: EGQS 200350Z 25011KT CAVOK 09/05 Q1002 BLU
Loading
Personal Weather Stations






























Interactive Weather Map
Tropical Storm Tracking
New forecast layout! Learn more

10-Day Weather Forecast

Advertisements
Track Severe Weather on mobile